createdAt,value
2022-10-21T00:04:10.961Z,13.87
2022-10-21T00:06:37.514Z,13.60
2022-10-21T00:09:07.097Z,13.20
2022-10-21T00:11:33.636Z,13.40
2022-10-21T00:14:00.112Z,14.53
2022-10-21T00:16:26.665Z,14.10
2022-10-21T00:18:53.180Z,13.90
2022-10-21T00:21:22.090Z,14.53
2022-10-21T00:23:49.957Z,14.83
2022-10-21T00:26:18.088Z,14.63
2022-10-21T00:28:44.856Z,15.70
2022-10-21T00:31:13.566Z,14.53
2022-10-21T00:33:40.551Z,15.47
2022-10-21T00:36:07.929Z,15.80
2022-10-21T00:38:35.927Z,15.20
2022-10-21T00:41:03.179Z,15.10
2022-10-21T00:43:29.778Z,14.90
2022-10-21T00:46:02.252Z,15.57
2022-10-21T00:48:41.540Z,16.20
2022-10-21T00:51:12.927Z,15.10
2022-10-21T00:53:42.521Z,16.80
2022-10-21T00:56:16.420Z,15.97
2022-10-21T00:58:44.620Z,16.30
2022-10-21T01:01:11.247Z,15.77
2022-10-21T01:03:37.795Z,15.23
2022-10-21T01:06:08.379Z,15.93
2022-10-21T01:08:36.092Z,15.83
2022-10-21T01:11:03.754Z,16.77
2022-10-21T01:14:11.722Z,16.03
2022-10-21T01:16:50.108Z,14.97
2022-10-21T01:19:26.233Z,17.63
2022-10-21T01:22:31.927Z,17.27
2022-10-21T01:25:22.336Z,15.63
2022-10-21T01:28:14.080Z,15.87
2022-10-21T01:30:58.735Z,15.53
2022-10-21T01:33:25.183Z,16.10
2022-10-21T01:36:09.576Z,15.47
2022-10-21T01:39:03.078Z,16.17
2022-10-21T01:41:35.717Z,16.30
2022-10-21T01:44:07.911Z,16.23
2022-10-21T01:46:42.521Z,16.13
2022-10-21T01:49:36.220Z,17.10
2022-10-21T01:52:04.350Z,15.70
2022-10-21T01:54:37.772Z,15.93
2022-10-21T01:57:06.949Z,15.27
2022-10-21T01:59:34.842Z,16.20
2022-10-21T02:02:04.091Z,15.73
2022-10-21T02:04:34.113Z,15.87
2022-10-21T02:07:00.682Z,16.80
2022-10-21T02:09:27.209Z,17.33
2022-10-21T02:11:58.395Z,16.20
2022-10-21T02:14:33.122Z,16.53
2022-10-21T02:17:00.812Z,16.40
2022-10-21T02:19:28.142Z,17.30
2022-10-21T02:21:58.504Z,16.87
2022-10-21T02:24:42.726Z,17.30
2022-10-21T02:27:09.352Z,17.47
2022-10-21T02:29:39.236Z,17.67
2022-10-21T02:32:27.486Z,16.20
2022-10-21T02:35:22.610Z,17.20
2022-10-21T02:38:10.149Z,15.97
2022-10-21T02:40:44.246Z,16.70
2022-10-21T02:43:15.815Z,18.13
2022-10-21T02:45:42.660Z,17.03
2022-10-21T02:48:09.142Z,18.50
2022-10-21T02:50:35.617Z,17.77
2022-10-21T02:53:02.179Z,17.97
2022-10-21T02:55:28.693Z,17.70
2022-10-21T02:57:55.207Z,18.00
2022-10-21T03:00:21.773Z,16.73
2022-10-21T03:02:48.434Z,19.53
2022-10-21T03:05:15.015Z,18.60
2022-10-21T03:07:41.757Z,18.27
2022-10-21T03:10:08.848Z,17.23
2022-10-21T03:12:35.480Z,18.57
2022-10-21T03:15:03.032Z,17.87
2022-10-21T03:17:29.664Z,17.83
2022-10-21T03:19:56.183Z,17.93
2022-10-21T03:22:22.706Z,19.93
2022-10-21T03:24:49.182Z,19.00
2022-10-21T03:27:15.789Z,17.50
2022-10-21T03:29:42.347Z,18.23
2022-10-21T03:32:08.873Z,18.27
2022-10-21T03:34:35.377Z,18.77
2022-10-21T03:37:01.901Z,17.87
2022-10-21T03:39:28.388Z,18.57
2022-10-21T03:41:54.916Z,17.80
2022-10-21T03:44:21.635Z,18.10
2022-10-21T03:46:48.480Z,17.50
2022-10-21T03:49:20.189Z,18.63
2022-10-21T03:51:48.399Z,17.33
2022-10-21T03:54:15.405Z,18.53
2022-10-21T03:56:41.928Z,17.73
2022-10-21T03:59:08.434Z,18.40
2022-10-21T04:01:35.168Z,17.33
2022-10-21T04:04:01.732Z,18.37
2022-10-21T04:06:31.414Z,16.93
2022-10-21T04:08:58.311Z,18.20
2022-10-21T04:11:24.941Z,18.07
2022-10-21T04:13:51.509Z,16.57
2022-10-21T04:16:20.944Z,17.83
2022-10-21T04:18:47.904Z,17.70
2022-10-21T04:21:15.052Z,19.83
2022-10-21T04:23:42.018Z,17.60
2022-10-21T04:26:09.261Z,18.87
2022-10-21T04:28:36.343Z,17.77
2022-10-21T04:31:03.388Z,16.63
2022-10-21T04:33:29.996Z,17.90
2022-10-21T04:35:58.842Z,17.73
2022-10-21T04:38:26.311Z,18.73
2022-10-21T04:41:01.065Z,18.27
2022-10-21T04:43:28.124Z,18.43
2022-10-21T04:45:54.879Z,17.73
2022-10-21T04:48:22.008Z,18.67
2022-10-21T04:50:49.936Z,17.40
2022-10-21T04:53:16.898Z,19.03
2022-10-21T04:55:43.458Z,19.43
2022-10-21T04:58:10.153Z,18.47
2022-10-21T05:00:36.746Z,18.87
2022-10-21T05:03:03.891Z,18.90
2022-10-21T05:05:30.392Z,19.23
2022-10-21T05:07:56.894Z,19.57
2022-10-21T05:10:23.921Z,18.23
2022-10-21T05:12:50.510Z,19.33
2022-10-21T05:15:17.139Z,18.07
2022-10-21T05:17:43.660Z,19.57
2022-10-21T05:20:10.602Z,19.27
2022-10-21T05:22:37.334Z,19.50
2022-10-21T05:25:04.457Z,19.50
2022-10-21T05:27:30.980Z,19.57
2022-10-21T05:29:58.409Z,20.00
2022-10-21T05:32:25.419Z,19.37
2022-10-21T05:34:51.996Z,19.97
2022-10-21T05:37:18.673Z,20.50
2022-10-21T05:39:45.162Z,21.57
2022-10-21T05:42:11.747Z,21.10
2022-10-21T05:44:38.256Z,20.30
2022-10-21T05:47:04.806Z,20.43
2022-10-21T05:49:31.281Z,21.97
2022-10-21T05:51:57.925Z,21.23
2022-10-21T05:54:24.420Z,20.50
2022-10-21T05:56:51.074Z,20.90
2022-10-21T05:59:17.664Z,22.07
2022-10-21T06:01:44.233Z,21.93
2022-10-21T06:04:10.753Z,21.77
2022-10-21T06:06:37.290Z,23.60
2022-10-21T06:09:04.242Z,22.30
2022-10-21T06:11:31.325Z,22.73
2022-10-21T06:13:57.873Z,23.07
2022-10-21T06:16:24.421Z,24.20
2022-10-21T06:18:51.022Z,22.00
2022-10-21T06:21:17.789Z,23.33
2022-10-21T06:23:44.325Z,22.70
2022-10-21T06:26:13.239Z,25.40
2022-10-21T06:28:42.159Z,24.63
2022-10-21T06:31:13.746Z,24.97
2022-10-21T06:33:40.404Z,24.90
2022-10-21T06:36:07.349Z,25.00
2022-10-21T06:38:34.288Z,25.00
2022-10-21T06:41:02.449Z,24.97
2022-10-21T06:43:29.385Z,28.03
2022-10-21T06:46:04.451Z,24.47
2022-10-21T06:48:31.085Z,26.10
2022-10-21T06:51:01.378Z,25.57
2022-10-21T06:53:28.666Z,26.00
2022-10-21T06:56:08.260Z,28.33
2022-10-21T06:58:36.790Z,25.73
2022-10-21T07:01:27.553Z,25.53
2022-10-21T07:04:04.872Z,27.47
2022-10-21T07:09:27.964Z,25.47
2022-10-21T07:11:55.321Z,26.17
2022-10-21T07:14:24.278Z,26.17
2022-10-21T07:16:54.412Z,25.17
2022-10-21T07:19:23.368Z,26.17
2022-10-21T07:21:50.117Z,25.37
2022-10-21T07:24:24.188Z,25.83
2022-10-21T07:26:51.468Z,25.23
2022-10-21T07:29:23.744Z,25.80
2022-10-21T07:31:52.453Z,25.90
2022-10-21T07:34:19.265Z,26.07
2022-10-21T07:36:52.832Z,25.47
2022-10-21T07:39:22.814Z,25.80
2022-10-21T07:41:51.935Z,25.20
2022-10-21T07:44:19.837Z,27.10
2022-10-21T07:46:47.562Z,25.60
2022-10-21T07:49:15.305Z,26.27
2022-10-21T07:51:42.487Z,26.53
2022-10-21T07:54:09.179Z,25.80
2022-10-21T07:56:41.527Z,25.37
2022-10-21T07:59:12.871Z,25.43
2022-10-21T08:01:44.500Z,25.40
2022-10-21T08:04:13.145Z,25.33
2022-10-21T08:06:40.637Z,26.17
2022-10-21T08:09:07.764Z,26.40
2022-10-21T08:11:34.822Z,25.27
2022-10-21T08:14:03.194Z,24.93
2022-10-21T08:16:29.734Z,25.63
2022-10-21T08:18:56.630Z,24.23
2022-10-21T08:21:23.186Z,24.67
2022-10-21T08:23:49.719Z,23.63
2022-10-21T08:26:16.312Z,25.33
2022-10-21T08:28:43.183Z,25.53
2022-10-21T08:31:18.454Z,24.73
2022-10-21T08:33:45.480Z,24.57
2022-10-21T08:36:18.352Z,23.97
2022-10-21T08:38:45.505Z,23.23
2022-10-21T08:41:30.267Z,23.43
2022-10-21T08:44:02.629Z,23.43
2022-10-21T08:46:38.156Z,22.30
2022-10-21T08:49:27.325Z,22.93
2022-10-21T08:52:08.022Z,23.53
2022-10-21T08:54:55.402Z,21.80
2022-10-21T08:57:22.376Z,22.70
2022-10-21T08:59:49.548Z,23.13
2022-10-21T09:02:35.495Z,22.07
2022-10-21T09:05:17.720Z,22.70
2022-10-21T09:08:23.107Z,22.87
2022-10-21T09:10:55.584Z,23.87
2022-10-21T09:13:33.791Z,24.30
2022-10-21T09:16:19.383Z,23.70
2022-10-21T09:18:54.998Z,22.07
2022-10-21T09:22:34.958Z,21.83
2022-10-21T09:25:21.395Z,23.30
2022-10-21T09:27:55.996Z,23.90
2022-10-21T09:30:23.508Z,23.73
2022-10-21T09:32:55.569Z,22.67
2022-10-21T09:35:41.795Z,21.23
2022-10-21T09:38:46.548Z,21.23
2022-10-21T09:43:56.137Z,21.70
2022-10-21T09:46:22.835Z,20.80
2022-10-21T09:49:25.889Z,20.40
2022-10-21T09:51:42.653Z,21.20
2022-10-21T09:54:17.101Z,21.10
2022-10-21T09:56:58.430Z,19.80
2022-10-21T09:59:30.352Z,20.60
2022-10-21T10:02:07.805Z,19.30
2022-10-21T10:04:35.161Z,18.53
2022-10-21T10:07:31.918Z,20.67
2022-10-21T10:09:58.501Z,18.77
2022-10-21T10:12:27.049Z,18.80
2022-10-21T10:14:55.599Z,18.13
2022-10-21T10:17:37.084Z,18.20
2022-10-21T10:20:12.479Z,17.40
2022-10-21T10:22:43.087Z,18.47
2022-10-21T10:25:18.608Z,17.90
2022-10-21T10:28:09.402Z,17.87
2022-10-21T10:30:41.847Z,18.33
2022-10-21T10:33:14.989Z,17.33
2022-10-21T10:35:49.124Z,16.83
2022-10-21T10:38:35.393Z,17.87
2022-10-21T10:41:07.130Z,17.00
2022-10-21T10:43:37.000Z,18.53
2022-10-21T10:46:07.186Z,18.00
2022-10-21T10:48:40.019Z,17.43
2022-10-21T10:51:25.913Z,17.87
2022-10-21T10:54:15.162Z,17.80
2022-10-21T10:56:48.797Z,16.53
2022-10-21T10:59:15.240Z,15.83
2022-10-21T11:02:00.721Z,15.97
2022-10-21T11:07:39.792Z,14.00
2022-10-21T11:10:47.085Z,13.80
2022-10-21T11:13:16.780Z,13.20
2022-10-21T11:15:58.499Z,13.33
2022-10-21T11:18:40.557Z,12.80
2022-10-21T11:21:22.884Z,12.60
2022-10-21T11:24:13.872Z,12.70
2022-10-21T11:27:16.803Z,11.53
2022-10-21T11:30:00.890Z,11.00
2022-10-21T11:33:05.201Z,10.47
2022-10-21T11:35:57.750Z,10.40
2022-10-21T11:38:30.239Z,9.97
2022-10-21T11:41:31.810Z,9.93
2022-10-21T11:44:01.029Z,9.20
2022-10-21T11:46:40.534Z,9.33
2022-10-21T11:49:18.114Z,9.20
2022-10-21T11:51:53.383Z,8.53
2022-10-21T11:54:31.857Z,8.03
2022-10-21T11:57:19.710Z,9.40
2022-10-21T12:00:20.206Z,8.50
2022-10-21T12:03:09.852Z,8.80
2022-10-21T12:05:46.913Z,8.37
2022-10-21T12:08:19.006Z,8.13
2022-10-21T12:10:54.632Z,8.20
2022-10-21T12:13:33.224Z,8.47
2022-10-21T12:16:12.654Z,8.77
2022-10-21T12:18:47.404Z,8.50
2022-10-21T12:21:17.912Z,8.50
2022-10-21T12:23:48.010Z,8.43
2022-10-21T12:26:24.535Z,8.60
2022-10-21T12:28:58.475Z,7.47
2022-10-21T12:31:45.284Z,7.77
2022-10-21T12:34:13.632Z,8.50
2022-10-21T12:36:44.387Z,8.73
2022-10-21T12:39:33.689Z,9.10
2022-10-21T12:42:12.535Z,8.00
2022-10-21T12:44:40.531Z,8.33
2022-10-21T12:47:34.675Z,8.40
2022-10-21T12:50:24.347Z,8.53
2022-10-21T12:53:16.854Z,8.23
2022-10-21T12:55:50.545Z,8.30
2022-10-21T12:58:39.357Z,8.00
2022-10-21T13:01:27.172Z,8.10
2022-10-21T13:03:55.957Z,7.93
2022-10-21T13:06:50.802Z,8.20
2022-10-21T13:09:39.371Z,8.30
2022-10-21T13:12:08.604Z,8.13
2022-10-21T13:14:56.216Z,8.83
2022-10-21T13:17:22.660Z,8.23
2022-10-21T13:19:57.347Z,9.30
2022-10-21T13:22:38.907Z,8.50
2022-10-21T13:25:26.953Z,8.10
2022-10-21T13:28:12.150Z,8.43
2022-10-21T13:30:59.505Z,9.43
2022-10-21T13:33:30.101Z,9.20
2022-10-21T13:36:03.871Z,8.93
2022-10-21T13:38:33.617Z,8.43
2022-10-21T13:41:07.175Z,8.33
2022-10-21T13:44:01.016Z,8.33
2022-10-21T13:46:32.659Z,8.87
2022-10-21T13:49:00.764Z,7.60
2022-10-21T13:51:40.965Z,8.13
2022-10-21T13:54:15.621Z,7.00
2022-10-21T13:56:43.519Z,7.57
2022-10-21T13:59:24.926Z,8.23
2022-10-21T14:01:54.184Z,7.43
2022-10-21T14:04:26.454Z,7.40
2022-10-21T14:06:57.986Z,7.83
2022-10-21T14:09:28.879Z,7.27
2022-10-21T14:12:01.787Z,7.20
2022-10-21T14:14:30.013Z,7.77
2022-10-21T14:17:02.624Z,6.47
2022-10-21T14:19:36.730Z,6.67
2022-10-21T14:22:04.425Z,6.90
2022-10-21T14:24:44.419Z,7.97
2022-10-21T14:27:20.156Z,6.77
2022-10-21T14:29:47.701Z,7.03
2022-10-21T14:32:16.555Z,7.00
2022-10-21T14:35:00.273Z,7.30
2022-10-21T14:37:26.875Z,7.03
2022-10-21T14:39:53.414Z,6.50
2022-10-21T14:42:25.367Z,7.27
2022-10-21T14:45:00.253Z,7.23
2022-10-21T14:47:27.534Z,7.13
2022-10-21T14:49:59.766Z,6.80
2022-10-21T14:52:36.342Z,6.83
2022-10-21T14:55:08.558Z,7.37
2022-10-21T14:57:40.919Z,7.20
2022-10-21T15:00:19.683Z,6.70
2022-10-21T15:02:46.562Z,6.67
2022-10-21T15:05:48.772Z,6.80
2022-10-21T15:08:21.651Z,7.20
2022-10-21T15:10:57.372Z,7.20
2022-10-21T15:13:25.933Z,6.60
2022-10-21T15:15:55.702Z,6.27
2022-10-21T15:18:27.758Z,6.13
2022-10-21T15:21:01.582Z,6.27
2022-10-21T15:23:41.467Z,6.83
2022-10-21T15:26:23.165Z,6.07
2022-10-21T15:28:50.857Z,6.50
2022-10-21T15:31:20.116Z,6.47
2022-10-21T15:33:49.771Z,6.23
2022-10-21T15:36:18.968Z,6.67
2022-10-21T15:38:46.991Z,6.50
2022-10-21T15:41:19.412Z,6.00
2022-10-21T15:43:57.861Z,6.40
2022-10-21T15:46:28.772Z,6.13
2022-10-21T15:48:56.968Z,5.93
2022-10-21T15:51:23.467Z,5.87
2022-10-21T15:53:49.946Z,5.97
2022-10-21T15:56:18.482Z,6.80
2022-10-21T15:58:45.379Z,6.57
2022-10-21T16:01:13.679Z,6.80
2022-10-21T16:03:40.354Z,7.00
2022-10-21T16:06:14.448Z,6.67
2022-10-21T16:08:41.252Z,7.30
2022-10-21T16:11:25.259Z,7.63
2022-10-21T16:13:56.625Z,8.43
2022-10-21T16:16:25.065Z,8.23
2022-10-21T16:18:53.133Z,7.83
2022-10-21T16:21:21.974Z,8.23
2022-10-21T16:23:48.662Z,7.90
2022-10-21T16:26:21.753Z,8.50
2022-10-21T16:28:49.761Z,11.93
2022-10-21T16:31:16.684Z,10.90
2022-10-21T16:33:43.580Z,10.10
2022-10-21T16:36:24.614Z,8.97
2022-10-21T16:38:52.532Z,8.63
2022-10-21T16:41:25.209Z,7.87
2022-10-21T16:43:51.727Z,8.17
2022-10-21T16:46:30.049Z,8.23
2022-10-21T16:48:57.918Z,7.23
2022-10-21T16:51:28.446Z,8.03
2022-10-21T16:53:54.969Z,7.53
2022-10-21T16:56:21.567Z,8.07
2022-10-21T16:58:48.332Z,8.80
2022-10-21T17:01:19.020Z,8.63
2022-10-21T17:03:45.593Z,9.10
2022-10-21T17:06:17.132Z,8.33
2022-10-21T17:08:43.694Z,8.70
2022-10-21T17:11:14.222Z,8.90
2022-10-21T17:13:42.500Z,9.20
2022-10-21T17:16:09.378Z,9.47
2022-10-21T17:18:36.000Z,9.27
2022-10-21T17:21:02.738Z,9.67
2022-10-21T17:23:29.315Z,9.33
2022-10-21T17:25:56.440Z,10.27
2022-10-21T17:28:23.171Z,9.80
2022-10-21T17:30:52.666Z,9.57
2022-10-21T17:33:19.465Z,9.57
2022-10-21T17:35:45.985Z,9.97
2022-10-21T17:38:14.958Z,10.30
2022-10-21T17:40:41.677Z,10.33
2022-10-21T17:43:08.192Z,10.63
2022-10-21T17:45:34.753Z,10.20
2022-10-21T17:48:02.791Z,11.07
2022-10-21T17:50:29.316Z,11.33
2022-10-21T17:52:55.983Z,11.43
2022-10-21T17:55:22.724Z,11.00
2022-10-21T17:57:49.397Z,11.60
2022-10-21T18:00:15.922Z,11.30
2022-10-21T18:02:42.540Z,10.97
2022-10-21T18:05:10.446Z,10.97
2022-10-21T18:07:37.761Z,11.37
2022-10-21T18:10:06.271Z,12.53
2022-10-21T18:12:33.086Z,10.57
2022-10-21T18:14:59.897Z,10.83
2022-10-21T18:17:26.664Z,11.07
2022-10-21T18:19:53.641Z,12.57
2022-10-21T18:22:21.327Z,12.53
2022-10-21T18:24:48.131Z,11.07
2022-10-21T18:27:14.807Z,11.67
2022-10-21T18:29:41.512Z,12.53
2022-10-21T18:32:12.539Z,11.20
2022-10-21T18:34:42.392Z,11.30
2022-10-21T18:37:08.954Z,11.90
2022-10-21T18:39:35.440Z,11.30
2022-10-21T18:42:01.933Z,12.40
2022-10-21T18:44:30.399Z,11.60
2022-10-21T18:46:56.916Z,10.70
2022-10-21T18:49:23.442Z,12.03
2022-10-21T18:51:49.930Z,12.97
2022-10-21T18:54:16.690Z,13.30
2022-10-21T18:56:44.829Z,11.63
2022-10-21T18:59:12.454Z,12.80
2022-10-21T19:01:40.076Z,12.33
2022-10-21T19:04:06.816Z,12.27
2022-10-21T19:06:46.773Z,11.87
2022-10-21T19:09:14.772Z,11.97
2022-10-21T19:11:42.772Z,12.13
2022-10-21T19:14:13.071Z,12.60
2022-10-21T19:16:42.204Z,12.57
2022-10-21T19:19:09.166Z,13.07
2022-10-21T19:21:36.352Z,14.03
2022-10-21T19:24:04.048Z,20.27
2022-10-21T19:26:32.885Z,19.00
2022-10-21T19:29:20.165Z,17.77
2022-10-21T19:34:21.141Z,14.17
2022-10-21T19:36:48.408Z,14.77
2022-10-21T19:39:16.033Z,13.50
2022-10-21T19:41:43.134Z,13.17
2022-10-21T19:44:09.945Z,13.17
2022-10-21T19:46:36.905Z,13.77
2022-10-21T19:49:05.663Z,14.83
2022-10-21T19:51:32.402Z,14.13
2022-10-21T19:53:59.038Z,13.80
2022-10-21T19:56:29.560Z,13.93
2022-10-21T19:58:59.985Z,14.97
2022-10-21T20:01:26.969Z,14.37
2022-10-21T20:03:55.236Z,14.03
2022-10-21T20:06:24.880Z,15.07
2022-10-21T20:08:54.799Z,14.80
2022-10-21T20:11:22.240Z,15.00
2022-10-21T20:13:50.362Z,14.73
2022-10-21T20:16:19.642Z,15.57
2022-10-21T20:18:46.583Z,15.77
2022-10-21T20:21:13.866Z,15.60
2022-10-21T20:23:40.623Z,14.93
2022-10-21T20:26:07.300Z,14.93
2022-10-21T20:28:34.803Z,14.80
2022-10-21T20:31:08.950Z,13.73
2022-10-21T20:33:40.520Z,13.60
2022-10-21T20:36:10.384Z,14.13
2022-10-21T20:38:37.044Z,12.93
2022-10-21T20:41:07.165Z,12.63
2022-10-21T20:43:38.864Z,13.37
2022-10-21T20:46:08.308Z,13.70
2022-10-21T20:48:35.906Z,13.40
2022-10-21T20:51:05.065Z,13.10
2022-10-21T20:53:35.277Z,13.13
2022-10-21T20:56:06.080Z,12.97
2022-10-21T20:58:37.329Z,11.97
2022-10-21T21:01:11.531Z,12.23
2022-10-21T21:03:39.253Z,12.47
2022-10-21T21:06:06.060Z,12.60
2022-10-21T21:08:36.899Z,12.00
2022-10-21T21:11:05.131Z,12.30
2022-10-21T21:13:32.040Z,12.63
2022-10-21T21:16:11.156Z,12.13
2022-10-21T21:18:39.156Z,11.80
2022-10-21T21:21:08.401Z,12.17
2022-10-21T21:23:35.632Z,11.57
2022-10-21T21:26:06.436Z,11.07
2022-10-21T21:28:35.576Z,12.70
2022-10-21T21:31:07.197Z,11.43
2022-10-21T21:33:34.228Z,11.60
2022-10-21T21:36:01.608Z,12.23
2022-10-21T21:38:28.467Z,12.20
2022-10-21T21:40:55.678Z,12.37
2022-10-21T21:43:22.275Z,13.03
2022-10-21T21:45:49.089Z,13.50
2022-10-21T21:50:48.080Z,13.70
2022-10-21T21:53:17.058Z,15.43
2022-10-21T21:55:43.793Z,17.10
2022-10-21T21:58:10.320Z,16.83
2022-10-21T22:00:37.102Z,15.83
2022-10-21T22:03:05.069Z,15.83
2022-10-21T22:05:32.036Z,15.13
2022-10-21T22:07:59.689Z,15.60
2022-10-21T22:10:27.206Z,15.20
2022-10-21T22:12:56.509Z,16.27
2022-10-21T22:15:43.247Z,15.20
2022-10-21T22:18:10.628Z,15.20
2022-10-21T22:20:39.906Z,15.07
2022-10-21T22:23:06.869Z,15.23
2022-10-21T22:25:33.386Z,15.90
2022-10-21T22:27:59.864Z,14.77
2022-10-21T22:30:26.385Z,14.80
2022-10-21T22:32:52.869Z,15.30
2022-10-21T22:35:19.511Z,15.10
2022-10-21T22:37:46.009Z,15.07
2022-10-21T22:40:12.827Z,15.23
2022-10-21T22:42:39.378Z,15.03
2022-10-21T22:45:06.670Z,15.47
2022-10-21T22:47:33.168Z,15.17
2022-10-21T22:49:59.671Z,15.50
2022-10-21T22:52:26.191Z,14.63
2022-10-21T22:54:52.742Z,15.10
2022-10-21T22:57:19.255Z,14.43
2022-10-21T22:59:49.402Z,14.37
2022-10-21T23:02:18.740Z,14.67
2022-10-21T23:04:45.287Z,14.07
2022-10-21T23:07:11.802Z,15.47
2022-10-21T23:09:38.311Z,15.00
2022-10-21T23:12:05.064Z,14.70
2022-10-21T23:14:31.563Z,14.77
2022-10-21T23:16:58.068Z,13.67
2022-10-21T23:19:24.613Z,14.47
2022-10-21T23:21:51.996Z,14.63
2022-10-21T23:24:20.422Z,13.90
2022-10-21T23:26:46.970Z,14.43
2022-10-21T23:29:13.699Z,14.30
2022-10-21T23:31:40.370Z,15.73
2022-10-21T23:34:06.920Z,14.80
2022-10-21T23:36:35.543Z,15.10
2022-10-21T23:39:02.564Z,15.33
2022-10-21T23:41:29.162Z,15.03
2022-10-21T23:43:55.752Z,15.43
2022-10-21T23:46:22.496Z,14.90
2022-10-21T23:48:49.214Z,14.77
2022-10-21T23:51:15.850Z,15.17
2022-10-21T23:53:42.351Z,14.63
2022-10-21T23:56:08.909Z,14.63
2022-10-21T23:58:35.457Z,15.13
